aviador You're here:

KATL Decoded Metar

ATLANTA in GA, USA
Report Time2017-11-21 05:52:00
UTC Time2017-11-21 06:21:59
Flight Rules vfr VFR
Wind090° at 05 kt
W.Decomp.*RWY 10: 5.0 kt HW 0.4 kt LCW
RWY 09: 5.0 kt HW 0.4 kt RCW
RWY 08: 4.8 kt HW 1.3 kt RCW
W.Rank090° ranks 4
Current wind is below 090° avg. (8.0)
Visibility9999 m
Phenomena:N/A
Clouds:Broken 038 Hf
Broken 180 Hf
Broken 250 Hf
Expected CloudBase > 1,200 ft AGL from Temp-Dew spread
Ceiling3,800 ft
Temp06°C (ISA -7)
Dew Point03°C (81% RH)
AAT2.7°C
QNH1022 hPa
Density Alt-79 ft
Elevation971 ft
Report Wrong Elevation
Raw Report
KATL 210552Z 09005KT 10SM BKN038 BKN180 BKN250 06/03 A3017 RMK AO2
SLP219 T00610028 10111 20061 58003=

Extra information for KATL:More info

Metar Taf Metar & Taf Last 4 Metars F.Rules Stats Wind Profile Meteogram Temp Stats Airport Information Weather charts Add Link Nearby VenuesMetar ALERT Operation Metar Decoded Social comments

AIRNAV info for KATL